createdAt,value
2022-10-14T00:00:51.959Z,14.41
2022-10-14T00:03:18.588Z,14.31
2022-10-14T00:05:45.310Z,14.51
2022-10-14T00:08:12.366Z,14.44
2022-10-14T00:10:39.594Z,14.41
2022-10-14T00:13:06.820Z,14.42
2022-10-14T00:15:40.762Z,14.42
2022-10-14T00:18:10.095Z,14.48
2022-10-14T00:20:36.761Z,14.47
2022-10-14T00:23:03.943Z,14.40
2022-10-14T00:25:30.925Z,14.33
2022-10-14T00:27:57.598Z,14.22
2022-10-14T00:30:24.353Z,14.30
2022-10-14T00:32:51.018Z,14.21
2022-10-14T00:35:17.972Z,14.08
2022-10-14T00:37:44.674Z,14.03
2022-10-14T00:40:13.124Z,13.97
2022-10-14T00:42:39.911Z,14.06
2022-10-14T00:45:13.503Z,14.14
2022-10-14T00:47:42.155Z,14.20
2022-10-14T00:50:10.080Z,14.20
2022-10-14T00:52:37.259Z,14.19
2022-10-14T00:55:10.246Z,14.35
2022-10-14T00:57:38.456Z,14.44
2022-10-14T01:00:13.823Z,14.44
2022-10-14T01:02:41.078Z,14.39
2022-10-14T01:05:10.277Z,14.34
2022-10-14T01:07:54.214Z,14.48
2022-10-14T01:10:33.027Z,14.47
2022-10-14T01:12:59.645Z,14.48
2022-10-14T01:15:48.171Z,14.50
2022-10-14T01:19:11.910Z,14.44
2022-10-14T01:21:55.923Z,14.18
2022-10-14T01:24:42.174Z,14.54
2022-10-14T01:27:24.754Z,14.53
2022-10-14T01:30:09.238Z,14.56
2022-10-14T01:32:41.691Z,14.56
2022-10-14T01:35:26.513Z,14.55
2022-10-14T01:38:04.149Z,14.51
2022-10-14T01:40:49.524Z,14.50
2022-10-14T01:43:19.284Z,14.40
2022-10-14T01:45:49.574Z,14.24
2022-10-14T01:48:19.545Z,14.33
2022-10-14T01:50:50.040Z,14.17
2022-10-14T01:53:25.970Z,14.07
2022-10-14T01:55:55.264Z,14.13
2022-10-14T01:58:25.641Z,14.17
2022-10-14T02:00:52.533Z,14.21
2022-10-14T02:03:19.385Z,14.27
2022-10-14T02:05:53.393Z,14.28
2022-10-14T02:08:40.332Z,14.15
2022-10-14T02:11:22.238Z,14.28
2022-10-14T02:14:01.100Z,14.38
2022-10-14T02:16:30.639Z,14.41
2022-10-14T02:19:34.876Z,14.43
2022-10-14T02:22:15.104Z,14.47
2022-10-14T02:24:54.548Z,14.34
2022-10-14T02:27:25.192Z,14.45
2022-10-14T02:29:56.048Z,14.46
2022-10-14T02:33:12.772Z,14.48
2022-10-14T02:35:41.461Z,14.43
2022-10-14T02:38:09.772Z,14.44
2022-10-14T02:40:41.739Z,14.33
2022-10-14T02:43:10.817Z,14.31
2022-10-14T02:45:38.740Z,14.39
2022-10-14T02:48:06.391Z,14.36
2022-10-14T02:50:33.197Z,14.17
2022-10-14T02:52:59.838Z,14.27
2022-10-14T02:55:26.694Z,14.32
2022-10-14T02:57:53.343Z,14.23
2022-10-14T03:00:20.281Z,14.29
2022-10-14T03:02:47.007Z,14.18
2022-10-14T03:05:15.908Z,14.14
2022-10-14T03:07:42.564Z,13.94
2022-10-14T03:10:12.331Z,14.01
2022-10-14T03:12:39.546Z,13.87
2022-10-14T03:15:13.223Z,13.85
2022-10-14T03:17:40.365Z,13.76
2022-10-14T03:20:08.002Z,13.85
2022-10-14T03:22:42.525Z,13.91
2022-10-14T03:25:09.908Z,13.89
2022-10-14T03:27:42.819Z,13.47
2022-10-14T03:30:13.209Z,13.77
2022-10-14T03:32:52.352Z,13.77
2022-10-14T03:35:31.795Z,13.65
2022-10-14T03:38:02.268Z,13.85
2022-10-14T03:40:31.404Z,13.79
2022-10-14T03:43:01.219Z,13.81
2022-10-14T03:45:35.246Z,13.86
2022-10-14T03:48:03.306Z,13.87
2022-10-14T03:50:29.991Z,13.77
2022-10-14T03:52:57.462Z,13.83
2022-10-14T03:55:30.821Z,13.85
2022-10-14T03:57:57.800Z,13.77
2022-10-14T04:00:25.841Z,13.55
2022-10-14T04:03:05.273Z,13.29
2022-10-14T04:05:42.737Z,13.45
2022-10-14T04:08:16.658Z,13.46
2022-10-14T04:10:54.459Z,13.42
2022-10-14T04:13:22.255Z,13.55
2022-10-14T04:15:49.268Z,13.32
2022-10-14T04:18:30.618Z,13.29
2022-10-14T04:21:05.681Z,13.32
2022-10-14T04:23:34.112Z,13.34
2022-10-14T04:26:09.377Z,13.32
2022-10-14T04:28:38.210Z,13.35
2022-10-14T04:31:13.582Z,13.52
2022-10-14T04:33:53.072Z,13.56
2022-10-14T04:36:27.130Z,13.72
2022-10-14T04:38:56.029Z,13.74
2022-10-14T04:41:23.805Z,13.81
2022-10-14T04:43:50.530Z,13.76
2022-10-14T04:46:31.570Z,13.75
2022-10-14T04:48:58.844Z,13.64
2022-10-14T04:51:29.494Z,13.48
2022-10-14T04:54:19.257Z,13.43
2022-10-14T04:56:57.348Z,13.44
2022-10-14T04:59:24.183Z,13.54
2022-10-14T05:02:11.800Z,13.45
2022-10-14T05:04:44.023Z,13.33
2022-10-14T05:07:11.555Z,13.54
2022-10-14T05:09:38.493Z,13.52
2022-10-14T05:12:14.675Z,13.60
2022-10-14T05:14:48.927Z,13.56
2022-10-14T05:17:22.979Z,13.60
2022-10-14T05:19:50.056Z,13.59
2022-10-14T05:22:18.765Z,13.55
2022-10-14T05:24:46.131Z,13.59
2022-10-14T05:27:13.519Z,13.58
2022-10-14T05:29:40.969Z,13.35
2022-10-14T05:32:08.359Z,13.46
2022-10-14T05:34:42.331Z,13.68
2022-10-14T05:37:13.398Z,13.72
2022-10-14T05:39:47.240Z,13.75
2022-10-14T05:42:18.243Z,13.76
2022-10-14T05:44:45.316Z,13.77
2022-10-14T05:47:13.130Z,13.64
2022-10-14T05:49:42.793Z,13.57
2022-10-14T05:52:09.765Z,13.66
2022-10-14T05:54:36.662Z,13.58
2022-10-14T05:57:05.977Z,13.61
2022-10-14T05:59:34.674Z,13.64
2022-10-14T06:02:02.404Z,13.77
2022-10-14T06:04:29.347Z,13.87
2022-10-14T06:06:56.267Z,13.78
2022-10-14T06:09:23.345Z,13.93
2022-10-14T06:11:50.265Z,13.88
2022-10-14T06:14:17.028Z,13.99
2022-10-14T06:16:45.135Z,13.98
2022-10-14T06:19:11.857Z,13.95
2022-10-14T06:21:38.764Z,13.76
2022-10-14T06:24:05.644Z,13.74
2022-10-14T06:26:32.558Z,13.92
2022-10-14T06:28:59.343Z,13.85
2022-10-14T06:31:31.254Z,13.94
2022-10-14T06:33:59.028Z,14.02
2022-10-14T06:36:25.815Z,14.03
2022-10-14T06:38:52.641Z,14.06
2022-10-14T06:41:19.337Z,13.94
2022-10-14T06:43:46.003Z,13.93
2022-10-14T06:46:12.674Z,14.12
2022-10-14T06:48:39.332Z,14.23
2022-10-14T06:51:06.300Z,14.21
2022-10-14T06:53:33.063Z,14.37
2022-10-14T06:56:00.528Z,14.44
2022-10-14T06:58:28.268Z,14.33
2022-10-14T07:00:55.167Z,14.12
2022-10-14T07:03:21.905Z,14.32
2022-10-14T07:05:48.661Z,14.39
2022-10-14T07:08:15.880Z,14.32
2022-10-14T07:10:42.801Z,14.37
2022-10-14T07:13:09.620Z,14.35
2022-10-14T07:15:37.977Z,14.48
2022-10-14T07:18:06.247Z,14.59
2022-10-14T07:20:35.732Z,14.78
2022-10-14T07:23:02.430Z,14.88
2022-10-14T07:25:29.222Z,14.87
2022-10-14T07:27:55.949Z,15.12
2022-10-14T07:30:22.910Z,15.20
2022-10-14T07:32:49.877Z,15.30
2022-10-14T07:35:17.265Z,15.28
2022-10-14T07:37:43.935Z,15.22
2022-10-14T07:40:11.145Z,15.40
2022-10-14T07:42:37.931Z,15.23
2022-10-14T07:45:06.658Z,15.31
2022-10-14T07:47:33.737Z,15.57
2022-10-14T07:50:01.506Z,15.67
2022-10-14T07:52:28.296Z,16.05
2022-10-14T07:54:55.029Z,16.12
2022-10-14T07:57:23.432Z,16.22
2022-10-14T07:59:52.332Z,15.94
2022-10-14T08:02:19.686Z,15.84
2022-10-14T08:04:47.177Z,15.86
2022-10-14T08:07:16.467Z,16.07
2022-10-14T08:09:43.184Z,16.04
2022-10-14T08:12:10.286Z,15.89
2022-10-14T08:14:37.454Z,16.10
2022-10-14T08:17:04.536Z,15.96
2022-10-14T08:19:32.057Z,16.02
2022-10-14T08:21:59.006Z,15.91
2022-10-14T08:24:25.709Z,16.15
2022-10-14T08:26:57.997Z,16.22
2022-10-14T08:29:25.563Z,16.25
2022-10-14T08:31:54.123Z,16.28
2022-10-14T08:34:21.741Z,16.36
2022-10-14T08:36:48.987Z,16.24
2022-10-14T08:39:19.522Z,16.31
2022-10-14T08:42:13.514Z,16.38
2022-10-14T08:48:16.118Z,16.55
2022-10-14T08:50:50.948Z,16.42
2022-10-14T08:53:34.033Z,16.48
2022-10-14T08:56:02.452Z,16.52
2022-10-14T08:58:58.758Z,16.32
2022-10-14T09:01:32.382Z,16.27
2022-10-14T09:04:05.256Z,16.23
2022-10-14T09:06:34.957Z,16.38
2022-10-14T09:09:11.771Z,16.61
2022-10-14T09:11:45.154Z,16.72
2022-10-14T09:14:25.059Z,16.83
2022-10-14T09:16:57.683Z,16.84
2022-10-14T09:19:32.974Z,16.81
2022-10-14T09:22:01.495Z,16.96
2022-10-14T09:24:35.873Z,16.83
2022-10-14T09:27:16.151Z,17.07
2022-10-14T09:29:45.807Z,17.17
2022-10-14T09:32:34.179Z,17.15
2022-10-14T09:35:02.606Z,17.07
2022-10-14T09:37:35.960Z,16.93
2022-10-14T09:40:06.701Z,16.96
2022-10-14T09:42:47.546Z,17.01
2022-10-14T09:45:22.570Z,17.05
2022-10-14T09:48:10.838Z,17.09
2022-10-14T09:50:47.053Z,17.09
2022-10-14T09:53:30.399Z,17.04
2022-10-14T09:56:02.882Z,17.09
2022-10-14T09:58:32.549Z,17.23
2022-10-14T10:01:00.685Z,17.33
2022-10-14T10:03:34.131Z,17.44
2022-10-14T10:06:07.525Z,17.63
2022-10-14T10:08:38.421Z,17.89
2022-10-14T10:11:13.828Z,17.99
2022-10-14T10:13:44.948Z,18.09
2022-10-14T10:16:32.872Z,17.82
2022-10-14T10:19:20.688Z,17.78
2022-10-14T10:21:47.599Z,17.95
2022-10-14T10:24:25.994Z,17.89
2022-10-14T10:26:55.418Z,18.07
2022-10-14T10:29:34.501Z,18.20
2022-10-14T10:32:29.318Z,18.38
2022-10-14T10:35:22.978Z,18.27
2022-10-14T10:38:08.257Z,18.34
2022-10-14T10:41:02.885Z,18.52
2022-10-14T10:43:57.736Z,18.46
2022-10-14T10:46:36.684Z,18.35
2022-10-14T10:49:36.230Z,18.22
2022-10-14T10:52:21.265Z,18.15
2022-10-14T10:55:17.956Z,18.09
2022-10-14T10:58:06.045Z,18.15
2022-10-14T11:01:06.749Z,18.27
2022-10-14T11:03:53.736Z,18.40
2022-10-14T11:06:45.602Z,18.42
2022-10-14T11:09:41.985Z,18.52
2022-10-14T11:12:41.949Z,18.42
2022-10-14T11:17:53.516Z,18.23
2022-10-14T11:20:34.450Z,18.09
2022-10-14T11:23:21.509Z,18.05
2022-10-14T11:26:26.211Z,17.90
2022-10-14T11:29:04.572Z,17.79
2022-10-14T11:31:51.740Z,17.66
2022-10-14T11:34:40.604Z,17.41
2022-10-14T11:37:13.873Z,17.09
2022-10-14T11:40:08.166Z,17.01
2022-10-14T11:42:49.824Z,17.01
2022-10-14T11:45:20.277Z,17.10
2022-10-14T11:48:17.431Z,17.16
2022-10-14T11:50:50.385Z,17.39
2022-10-14T11:53:25.138Z,17.32
2022-10-14T11:56:04.831Z,17.24
2022-10-14T11:58:35.109Z,17.32
2022-10-14T12:01:18.551Z,17.20
2022-10-14T12:03:58.598Z,17.30
2022-10-14T12:06:41.913Z,17.25
2022-10-14T12:09:59.932Z,17.18
2022-10-14T12:12:32.418Z,17.08
2022-10-14T12:15:04.222Z,17.03
2022-10-14T12:17:52.299Z,17.00
2022-10-14T12:20:49.804Z,17.08
2022-10-14T12:23:34.463Z,17.32
2022-10-14T12:26:35.164Z,17.70
2022-10-14T12:29:03.863Z,17.78
2022-10-14T12:31:36.851Z,17.94
2022-10-14T12:34:15.502Z,17.81
2022-10-14T12:36:47.379Z,17.80
2022-10-14T12:39:17.063Z,18.17
2022-10-14T12:42:13.232Z,18.09
2022-10-14T12:44:49.104Z,17.92
2022-10-14T12:47:29.023Z,18.07
2022-10-14T12:49:58.037Z,17.93
2022-10-14T12:52:30.754Z,18.08
2022-10-14T12:55:00.874Z,18.36
2022-10-14T12:57:38.812Z,18.44
2022-10-14T13:00:23.508Z,18.28
2022-10-14T13:03:01.262Z,18.03
2022-10-14T13:05:38.725Z,18.09
2022-10-14T13:08:20.404Z,18.23
2022-10-14T13:11:12.114Z,18.45
2022-10-14T13:13:59.030Z,18.54
2022-10-14T13:16:25.664Z,18.86
2022-10-14T13:19:02.397Z,18.54
2022-10-14T13:21:36.644Z,18.48
2022-10-14T13:24:26.093Z,18.20
2022-10-14T13:26:53.367Z,18.11
2022-10-14T13:29:20.096Z,18.19
2022-10-14T13:31:58.596Z,18.21
2022-10-14T13:34:43.632Z,18.38
2022-10-14T13:37:19.247Z,18.44
2022-10-14T13:39:46.511Z,18.46
2022-10-14T13:42:39.535Z,18.32
2022-10-14T13:45:14.276Z,18.13
2022-10-14T13:47:43.345Z,18.04
2022-10-14T13:50:12.798Z,18.03
2022-10-14T13:52:40.524Z,18.28
2022-10-14T13:55:19.329Z,18.50
2022-10-14T13:58:18.591Z,18.63
2022-10-14T14:00:57.839Z,18.47
2022-10-14T14:03:36.522Z,18.45
2022-10-14T14:06:12.848Z,18.58
2022-10-14T14:08:49.961Z,18.47
2022-10-14T14:11:26.749Z,18.72
2022-10-14T14:14:00.765Z,18.53
2022-10-14T14:16:52.166Z,18.23
2022-10-14T14:19:22.143Z,18.03
2022-10-14T14:21:49.452Z,17.71
2022-10-14T14:24:23.541Z,17.67
2022-10-14T14:26:55.342Z,17.71
2022-10-14T14:29:28.337Z,17.56
2022-10-14T14:32:12.574Z,17.45
2022-10-14T14:34:43.900Z,17.51
2022-10-14T14:40:16.051Z,17.43
2022-10-14T14:42:44.906Z,17.27
2022-10-14T14:45:40.517Z,17.35
2022-10-14T14:48:08.193Z,17.09
2022-10-14T14:50:42.903Z,17.26
2022-10-14T14:53:22.566Z,17.18
2022-10-14T14:55:55.346Z,17.12
2022-10-14T14:58:28.247Z,17.10
2022-10-14T15:00:55.924Z,16.97
2022-10-14T15:03:25.410Z,16.98
2022-10-14T15:06:01.885Z,16.76
2022-10-14T15:08:39.764Z,16.60
2022-10-14T15:11:06.626Z,16.16
2022-10-14T15:13:39.187Z,16.37
2022-10-14T15:16:06.858Z,16.33
2022-10-14T15:18:36.125Z,16.53
2022-10-14T15:21:12.404Z,16.58
2022-10-14T15:23:43.573Z,16.49
2022-10-14T15:26:35.960Z,16.47
2022-10-14T15:29:02.586Z,16.49
2022-10-14T15:31:29.348Z,16.33
2022-10-14T15:33:56.055Z,16.47
2022-10-14T15:36:22.812Z,16.44
2022-10-14T15:38:49.901Z,16.52
2022-10-14T15:41:16.599Z,16.55
2022-10-14T15:43:43.514Z,16.55
2022-10-14T15:46:32.595Z,16.57
2022-10-14T15:49:03.181Z,16.59
2022-10-14T15:51:31.169Z,16.53
2022-10-14T15:53:58.257Z,16.45
2022-10-14T15:56:24.931Z,16.37
2022-10-14T15:58:51.634Z,16.42
2022-10-14T16:01:22.823Z,16.36
2022-10-14T16:03:55.292Z,16.21
2022-10-14T16:06:24.054Z,16.14
2022-10-14T16:08:51.021Z,16.27
2022-10-14T16:11:22.774Z,16.26
2022-10-14T16:13:49.597Z,16.21
2022-10-14T16:16:22.117Z,16.25
2022-10-14T16:18:48.761Z,16.34
2022-10-14T16:21:17.153Z,16.42
2022-10-14T16:23:43.815Z,16.37
2022-10-14T16:26:10.692Z,16.50
2022-10-14T16:28:37.620Z,16.50
2022-10-14T16:31:04.327Z,16.54
2022-10-14T16:33:31.075Z,16.42
2022-10-14T16:35:57.993Z,16.55
2022-10-14T16:38:24.657Z,16.57
2022-10-14T16:40:59.377Z,16.63
2022-10-14T16:43:27.095Z,16.61
2022-10-14T16:45:57.791Z,16.53
2022-10-14T16:48:25.308Z,16.50
2022-10-14T16:50:53.918Z,16.31
2022-10-14T16:53:40.676Z,16.22
2022-10-14T16:56:37.821Z,16.10
2022-10-14T16:59:07.548Z,16.00
2022-10-14T17:01:34.616Z,16.08
2022-10-14T17:04:02.274Z,16.13
2022-10-14T17:06:29.078Z,16.25
2022-10-14T17:08:55.710Z,16.31
2022-10-14T17:11:23.320Z,16.26
2022-10-14T17:13:54.256Z,16.40
2022-10-14T17:16:21.342Z,16.35
2022-10-14T17:21:21.461Z,16.37
2022-10-14T17:23:49.302Z,16.43
2022-10-14T17:26:20.749Z,16.43
2022-10-14T17:28:48.534Z,16.43
2022-10-14T17:31:17.745Z,16.46
2022-10-14T17:33:44.516Z,16.37
2022-10-14T17:36:30.830Z,16.35
2022-10-14T17:38:58.933Z,16.33
2022-10-14T17:41:28.781Z,16.29
2022-10-14T17:43:57.137Z,16.23
2022-10-14T17:46:26.153Z,16.41
2022-10-14T17:48:56.187Z,16.27
2022-10-14T17:51:25.419Z,16.36
2022-10-14T17:53:53.887Z,16.37
2022-10-14T17:56:21.117Z,16.41
2022-10-14T17:58:51.928Z,16.46
2022-10-14T18:01:19.700Z,16.23
2022-10-14T18:03:56.357Z,16.20
2022-10-14T18:06:28.521Z,16.11
2022-10-14T18:08:57.919Z,16.09
2022-10-14T18:11:25.670Z,15.95
2022-10-14T18:14:04.115Z,15.94
2022-10-14T18:16:34.479Z,15.71
2022-10-14T18:19:10.581Z,15.70
2022-10-14T18:21:38.586Z,15.75
2022-10-14T18:24:06.003Z,15.55
2022-10-14T18:26:34.019Z,15.70
2022-10-14T18:29:00.978Z,15.75
2022-10-14T18:31:29.997Z,15.92
2022-10-14T18:33:59.387Z,15.99
2022-10-14T18:36:28.489Z,15.92
2022-10-14T18:38:59.142Z,15.82
2022-10-14T18:41:26.867Z,15.79
2022-10-14T18:43:54.565Z,15.85
2022-10-14T18:46:23.906Z,15.87
2022-10-14T18:48:52.563Z,15.92
2022-10-14T18:51:25.428Z,16.01
2022-10-14T18:53:56.205Z,16.04
2022-10-14T18:56:28.597Z,16.02
2022-10-14T18:59:01.788Z,15.99
2022-10-14T19:01:30.073Z,15.89
2022-10-14T19:03:57.122Z,15.79
2022-10-14T19:06:24.248Z,15.82
2022-10-14T19:08:52.039Z,15.88
2022-10-14T19:11:22.063Z,15.95
2022-10-14T19:13:51.957Z,15.95
2022-10-14T19:16:47.343Z,15.99
2022-10-14T19:19:18.250Z,15.89
2022-10-14T19:21:49.900Z,15.94
2022-10-14T19:24:17.399Z,15.94
2022-10-14T19:26:46.795Z,15.86
2022-10-14T19:29:15.264Z,15.81
2022-10-14T19:31:43.841Z,15.77
2022-10-14T19:34:13.966Z,15.68
2022-10-14T19:36:41.623Z,15.58
2022-10-14T19:39:11.701Z,15.51
2022-10-14T19:41:43.100Z,15.37
2022-10-14T19:44:11.561Z,15.31
2022-10-14T19:46:38.869Z,15.34
2022-10-14T19:49:06.273Z,15.37
2022-10-14T19:51:34.573Z,15.21
2022-10-14T19:54:01.894Z,15.24
2022-10-14T19:56:28.862Z,15.20
2022-10-14T19:58:58.119Z,15.12
2022-10-14T20:01:27.923Z,15.19
2022-10-14T20:03:54.867Z,15.16
2022-10-14T20:06:23.049Z,15.06
2022-10-14T20:08:50.075Z,15.16
2022-10-14T20:11:19.109Z,15.14
2022-10-14T20:13:46.775Z,15.23
2022-10-14T20:16:14.246Z,15.28
2022-10-14T20:18:41.697Z,15.27
2022-10-14T20:21:11.475Z,15.20
2022-10-14T20:23:38.619Z,14.96
2022-10-14T20:26:08.378Z,15.12
2022-10-14T20:28:36.497Z,15.08
2022-10-14T20:31:06.690Z,15.29
2022-10-14T20:33:33.403Z,15.12
2022-10-14T20:36:10.134Z,15.12
2022-10-14T20:38:40.744Z,14.99
2022-10-14T20:41:19.871Z,14.88
2022-10-14T20:43:47.848Z,14.94
2022-10-14T20:46:14.924Z,14.93
2022-10-14T20:48:42.201Z,14.92
2022-10-14T20:51:15.720Z,14.92
2022-10-14T20:53:42.377Z,14.96
2022-10-14T20:56:11.553Z,14.89
2022-10-14T20:58:38.607Z,14.92
2022-10-14T21:01:08.124Z,14.89
2022-10-14T21:03:35.413Z,14.93
2022-10-14T21:06:08.109Z,14.99
2022-10-14T21:08:35.658Z,14.96
2022-10-14T21:11:07.026Z,14.84
2022-10-14T21:13:35.959Z,14.88
2022-10-14T21:16:12.853Z,14.82
2022-10-14T21:18:39.729Z,14.95
2022-10-14T21:21:06.549Z,15.01
2022-10-14T21:23:34.610Z,15.12
2022-10-14T21:26:01.293Z,15.02
2022-10-14T21:28:28.067Z,15.09
2022-10-14T21:30:54.909Z,15.14
2022-10-14T21:33:21.614Z,15.06
2022-10-14T21:35:48.399Z,14.98
2022-10-14T21:38:15.083Z,14.99
2022-10-14T21:40:41.786Z,14.94
2022-10-14T21:43:08.529Z,14.94
2022-10-14T21:45:35.340Z,15.02
2022-10-14T21:48:02.153Z,15.11
2022-10-14T21:50:28.824Z,15.13
2022-10-14T21:52:55.530Z,15.15
2022-10-14T21:55:22.204Z,15.16
2022-10-14T21:57:49.075Z,15.10
2022-10-14T22:00:16.033Z,15.06
2022-10-14T22:02:42.852Z,14.99
2022-10-14T22:05:09.701Z,15.05
2022-10-14T22:07:36.351Z,15.02
2022-10-14T22:10:23.652Z,15.06
2022-10-14T22:12:50.298Z,15.06
2022-10-14T22:15:16.989Z,15.05
2022-10-14T22:17:43.713Z,15.16
2022-10-14T22:20:11.008Z,15.19
2022-10-14T22:22:37.703Z,15.19
2022-10-14T22:25:04.871Z,15.13
2022-10-14T22:27:31.555Z,15.04
2022-10-14T22:29:58.658Z,14.92
2022-10-14T22:32:25.297Z,15.02
2022-10-14T22:34:51.946Z,15.02
2022-10-14T22:37:18.822Z,14.95
2022-10-14T22:39:45.515Z,15.04
2022-10-14T22:42:12.218Z,15.06
2022-10-14T22:44:38.933Z,15.03
2022-10-14T22:47:05.622Z,14.84
2022-10-14T22:49:32.286Z,14.89
2022-10-14T22:51:59.028Z,14.96
2022-10-14T22:54:25.734Z,15.04
2022-10-14T22:56:52.355Z,14.98
2022-10-14T22:59:18.998Z,14.95
2022-10-14T23:01:45.642Z,14.85
2022-10-14T23:04:12.325Z,14.85
2022-10-14T23:06:39.476Z,14.80
2022-10-14T23:09:06.115Z,14.77
2022-10-14T23:11:32.771Z,14.76
2022-10-14T23:14:02.800Z,14.72
2022-10-14T23:16:33.097Z,14.68
2022-10-14T23:18:59.793Z,14.64
2022-10-14T23:21:29.067Z,14.60
2022-10-14T23:23:58.546Z,14.66
2022-10-14T23:26:27.700Z,14.69
2022-10-14T23:28:57.426Z,14.78
2022-10-14T23:31:28.881Z,14.88
2022-10-14T23:33:58.136Z,14.98
2022-10-14T23:36:25.123Z,14.97
2022-10-14T23:38:52.529Z,15.02
2022-10-14T23:41:22.016Z,15.01
2022-10-14T23:43:50.342Z,14.98
2022-10-14T23:46:18.288Z,14.86
2022-10-14T23:48:51.460Z,14.88
2022-10-14T23:51:27.675Z,14.88
2022-10-14T23:53:54.360Z,14.94
2022-10-14T23:56:21.075Z,14.83
2022-10-14T23:58:47.716Z,14.82
